Terminal Aerodrome Forecast
Issued by NWS Wichita, KS

Home | Current Version | Previous Version | Graphics & Text | Print | Product List | Glossary On
Versions: 1 2 3 4 5 6 7 8 9 10 11 12 13 14 15 16 17 18 19 20 21
000
FTUS43 KICT 310155 AAA
TAFICT
TAF AMD
KICT 310155Z 3102/3124 02007KT P6SM VCTS SCT040CB BKN100
     FM310300 06005KT P6SM VCSH SCT040 BKN100
     FM311000 04005KT 6SM BR SCT015 BKN035
     FM311600 03010KT P6SM VCTS BKN035CB=

USA.gov is the U.S. government's official web portal to all federal, state and local government web resources and services.